sensor_id;sensor_type;location;lat;lon;timestamp;P1;durP1;ratioP1;P2;durP2;ratioP2
45043;SDS011;30784;48.490;9.688;2023-06-10T00:01:45;7.22;;;3.47;;
45043;SDS011;30784;48.490;9.688;2023-06-10T00:04:12;6.72;;;3.20;;
45043;SDS011;30784;48.490;9.688;2023-06-10T00:06:39;6.95;;;3.45;;
45043;SDS011;30784;48.490;9.688;2023-06-10T00:09:05;7.35;;;3.50;;
45043;SDS011;30784;48.490;9.688;2023-06-10T00:11:31;7.38;;;3.60;;
45043;SDS011;30784;48.490;9.688;2023-06-10T00:13:57;7.05;;;3.60;;
45043;SDS011;30784;48.490;9.688;2023-06-10T00:16:23;6.63;;;3.42;;
45043;SDS011;30784;48.490;9.688;2023-06-10T00:18:49;7.50;;;3.72;;
45043;SDS011;30784;48.490;9.688;2023-06-10T00:21:16;6.85;;;3.45;;
45043;SDS011;30784;48.490;9.688;2023-06-10T00:23:42;6.88;;;3.55;;
45043;SDS011;30784;48.490;9.688;2023-06-10T00:26:08;7.75;;;3.60;;
45043;SDS011;30784;48.490;9.688;2023-06-10T00:28:34;6.90;;;3.30;;
45043;SDS011;30784;48.490;9.688;2023-06-10T00:30:59;8.68;;;3.88;;
45043;SDS011;30784;48.490;9.688;2023-06-10T00:33:25;7.07;;;3.70;;
45043;SDS011;30784;48.490;9.688;2023-06-10T00:35:51;7.28;;;3.45;;
45043;SDS011;30784;48.490;9.688;2023-06-10T00:38:16;7.38;;;3.72;;
45043;SDS011;30784;48.490;9.688;2023-06-10T00:40:42;6.15;;;3.28;;
45043;SDS011;30784;48.490;9.688;2023-06-10T00:43:08;7.65;;;3.88;;
45043;SDS011;30784;48.490;9.688;2023-06-10T00:45:34;7.70;;;3.70;;
45043;SDS011;30784;48.490;9.688;2023-06-10T00:48:00;7.70;;;3.42;;
45043;SDS011;30784;48.490;9.688;2023-06-10T00:50:26;6.97;;;3.58;;
45043;SDS011;30784;48.490;9.688;2023-06-10T00:52:53;6.97;;;3.78;;
45043;SDS011;30784;48.490;9.688;2023-06-10T00:55:20;7.00;;;3.70;;
45043;SDS011;30784;48.490;9.688;2023-06-10T00:57:46;7.10;;;3.58;;
45043;SDS011;30784;48.490;9.688;2023-06-10T01:00:13;6.75;;;3.30;;
45043;SDS011;30784;48.490;9.688;2023-06-10T01:02:40;6.68;;;3.35;;
45043;SDS011;30784;48.490;9.688;2023-06-10T01:05:06;7.18;;;3.60;;
45043;SDS011;30784;48.490;9.688;2023-06-10T01:07:37;7.43;;;3.80;;
45043;SDS011;30784;48.490;9.688;2023-06-10T01:10:24;6.90;;;3.60;;
45043;SDS011;30784;48.490;9.688;2023-06-10T01:12:59;9.32;;;3.30;;
45043;SDS011;30784;48.490;9.688;2023-06-10T01:15:28;7.55;;;3.63;;
45043;SDS011;30784;48.490;9.688;2023-06-10T01:17:59;6.97;;;3.58;;
45043;SDS011;30784;48.490;9.688;2023-06-10T01:20:27;6.55;;;3.25;;
45043;SDS011;30784;48.490;9.688;2023-06-10T01:22:54;7.10;;;3.50;;
45043;SDS011;30784;48.490;9.688;2023-06-10T01:25:22;6.80;;;3.40;;
45043;SDS011;30784;48.490;9.688;2023-06-10T01:27:53;6.60;;;3.30;;
45043;SDS011;30784;48.490;9.688;2023-06-10T01:30:22;7.47;;;3.67;;
45043;SDS011;30784;48.490;9.688;2023-06-10T01:32:54;8.50;;;3.60;;
45043;SDS011;30784;48.490;9.688;2023-06-10T01:35:21;7.10;;;3.33;;
45043;SDS011;30784;48.490;9.688;2023-06-10T01:37:51;6.03;;;2.97;;
45043;SDS011;30784;48.490;9.688;2023-06-10T01:40:19;6.55;;;3.47;;
45043;SDS011;30784;48.490;9.688;2023-06-10T01:42:45;8.52;;;3.22;;
45043;SDS011;30784;48.490;9.688;2023-06-10T01:45:11;7.30;;;4.10;;
45043;SDS011;30784;48.490;9.688;2023-06-10T01:47:37;6.75;;;3.38;;
45043;SDS011;30784;48.490;9.688;2023-06-10T01:50:03;7.20;;;3.78;;
45043;SDS011;30784;48.490;9.688;2023-06-10T01:52:28;6.90;;;3.63;;
45043;SDS011;30784;48.490;9.688;2023-06-10T01:54:54;7.43;;;3.55;;
45043;SDS011;30784;48.490;9.688;2023-06-10T01:57:20;6.72;;;3.35;;
45043;SDS011;30784;48.490;9.688;2023-06-10T01:59:45;6.70;;;3.67;;
45043;SDS011;30784;48.490;9.688;2023-06-10T02:02:11;7.43;;;3.85;;
45043;SDS011;30784;48.490;9.688;2023-06-10T02:04:37;6.95;;;3.58;;
45043;SDS011;30784;48.490;9.688;2023-06-10T02:07:03;6.85;;;3.50;;
45043;SDS011;30784;48.490;9.688;2023-06-10T02:09:29;7.47;;;3.95;;
45043;SDS011;30784;48.490;9.688;2023-06-10T02:11:55;7.65;;;3.60;;
45043;SDS011;30784;48.490;9.688;2023-06-10T02:14:22;7.43;;;4.00;;
45043;SDS011;30784;48.490;9.688;2023-06-10T02:16:47;7.70;;;3.72;;
45043;SDS011;30784;48.490;9.688;2023-06-10T02:19:13;7.38;;;3.85;;
45043;SDS011;30784;48.490;9.688;2023-06-10T02:21:39;7.13;;;3.72;;
45043;SDS011;30784;48.490;9.688;2023-06-10T02:24:04;7.45;;;3.85;;
45043;SDS011;30784;48.490;9.688;2023-06-10T02:26:30;7.57;;;3.92;;
45043;SDS011;30784;48.490;9.688;2023-06-10T02:28:56;7.22;;;3.88;;
45043;SDS011;30784;48.490;9.688;2023-06-10T02:31:22;7.15;;;3.88;;
45043;SDS011;30784;48.490;9.688;2023-06-10T02:33:49;7.57;;;3.42;;
45043;SDS011;30784;48.490;9.688;2023-06-10T02:36:14;9.25;;;4.05;;
45043;SDS011;30784;48.490;9.688;2023-06-10T02:38:40;7.45;;;3.78;;
45043;SDS011;30784;48.490;9.688;2023-06-10T02:41:06;7.68;;;4.20;;
45043;SDS011;30784;48.490;9.688;2023-06-10T02:43:32;7.72;;;3.85;;
45043;SDS011;30784;48.490;9.688;2023-06-10T02:45:58;7.55;;;4.03;;
45043;SDS011;30784;48.490;9.688;2023-06-10T02:48:24;8.18;;;4.22;;
45043;SDS011;30784;48.490;9.688;2023-06-10T02:50:49;7.22;;;3.55;;
45043;SDS011;30784;48.490;9.688;2023-06-10T02:53:15;7.63;;;3.72;;
45043;SDS011;30784;48.490;9.688;2023-06-10T02:55:41;7.03;;;3.67;;
45043;SDS011;30784;48.490;9.688;2023-06-10T02:58:07;7.22;;;3.45;;
45043;SDS011;30784;48.490;9.688;2023-06-10T03:00:33;6.85;;;3.63;;
45043;SDS011;30784;48.490;9.688;2023-06-10T03:02:59;7.55;;;3.97;;
45043;SDS011;30784;48.490;9.688;2023-06-10T03:05:28;6.70;;;3.57;;
45043;SDS011;30784;48.490;9.688;2023-06-10T03:07:54;6.75;;;3.55;;
45043;SDS011;30784;48.490;9.688;2023-06-10T03:10:20;7.80;;;3.97;;
45043;SDS011;30784;48.490;9.688;2023-06-10T03:12:45;7.93;;;3.80;;
45043;SDS011;30784;48.490;9.688;2023-06-10T03:15:11;7.13;;;3.60;;
45043;SDS011;30784;48.490;9.688;2023-06-10T03:17:37;7.78;;;3.65;;
45043;SDS011;30784;48.490;9.688;2023-06-10T03:20:03;7.18;;;3.85;;
45043;SDS011;30784;48.490;9.688;2023-06-10T03:22:30;7.53;;;3.65;;
45043;SDS011;30784;48.490;9.688;2023-06-10T03:24:56;7.25;;;3.60;;
45043;SDS011;30784;48.490;9.688;2023-06-10T03:27:22;6.95;;;3.60;;
45043;SDS011;30784;48.490;9.688;2023-06-10T03:29:47;7.18;;;3.67;;
45043;SDS011;30784;48.490;9.688;2023-06-10T03:32:13;7.30;;;3.45;;
45043;SDS011;30784;48.490;9.688;2023-06-10T03:34:39;8.23;;;3.92;;
45043;SDS011;30784;48.490;9.688;2023-06-10T03:37:05;7.95;;;4.10;;
45043;SDS011;30784;48.490;9.688;2023-06-10T03:39:31;8.43;;;4.38;;
45043;SDS011;30784;48.490;9.688;2023-06-10T03:41:57;7.57;;;3.88;;
45043;SDS011;30784;48.490;9.688;2023-06-10T03:44:24;7.55;;;3.92;;
45043;SDS011;30784;48.490;9.688;2023-06-10T03:46:51;7.13;;;3.83;;
45043;SDS011;30784;48.490;9.688;2023-06-10T03:49:17;7.40;;;3.78;;
45043;SDS011;30784;48.490;9.688;2023-06-10T03:51:42;7.25;;;3.78;;
45043;SDS011;30784;48.490;9.688;2023-06-10T03:54:08;7.13;;;3.45;;
45043;SDS011;30784;48.490;9.688;2023-06-10T03:56:34;7.65;;;3.83;;
45043;SDS011;30784;48.490;9.688;2023-06-10T03:59:00;7.57;;;4.25;;
45043;SDS011;30784;48.490;9.688;2023-06-10T04:01:25;7.28;;;3.88;;
45043;SDS011;30784;48.490;9.688;2023-06-10T04:03:51;8.02;;;4.07;;
45043;SDS011;30784;48.490;9.688;2023-06-10T04:06:19;8.50;;;4.18;;
45043;SDS011;30784;48.490;9.688;2023-06-10T04:08:44;7.78;;;3.95;;
45043;SDS011;30784;48.490;9.688;2023-06-10T04:11:10;7.75;;;4.10;;
45043;SDS011;30784;48.490;9.688;2023-06-10T04:13:35;6.85;;;3.83;;
45043;SDS011;30784;48.490;9.688;2023-06-10T04:16:01;7.93;;;4.03;;
45043;SDS011;30784;48.490;9.688;2023-06-10T04:18:27;7.60;;;4.32;;
45043;SDS011;30784;48.490;9.688;2023-06-10T04:20:53;8.52;;;4.43;;
45043;SDS011;30784;48.490;9.688;2023-06-10T04:23:19;8.35;;;4.40;;
45043;SDS011;30784;48.490;9.688;2023-06-10T04:25:44;8.60;;;4.65;;
45043;SDS011;30784;48.490;9.688;2023-06-10T04:28:10;8.65;;;4.70;;
45043;SDS011;30784;48.490;9.688;2023-06-10T04:30:35;8.07;;;4.40;;
45043;SDS011;30784;48.490;9.688;2023-06-10T04:33:01;9.73;;;4.50;;
45043;SDS011;30784;48.490;9.688;2023-06-10T04:35:27;8.40;;;4.13;;
45043;SDS011;30784;48.490;9.688;2023-06-10T04:37:52;7.70;;;4.45;;
45043;SDS011;30784;48.490;9.688;2023-06-10T04:40:18;8.60;;;4.40;;
45043;SDS011;30784;48.490;9.688;2023-06-10T04:42:44;9.23;;;4.65;;
45043;SDS011;30784;48.490;9.688;2023-06-10T04:45:10;7.75;;;4.28;;
45043;SDS011;30784;48.490;9.688;2023-06-10T04:47:36;8.05;;;4.43;;
45043;SDS011;30784;48.490;9.688;2023-06-10T04:50:02;7.53;;;4.28;;
45043;SDS011;30784;48.490;9.688;2023-06-10T04:52:28;8.45;;;4.80;;
45043;SDS011;30784;48.490;9.688;2023-06-10T04:54:54;8.13;;;4.53;;
45043;SDS011;30784;48.490;9.688;2023-06-10T04:57:19;8.13;;;4.38;;
45043;SDS011;30784;48.490;9.688;2023-06-10T04:59:46;8.35;;;4.63;;
45043;SDS011;30784;48.490;9.688;2023-06-10T05:02:12;8.25;;;4.85;;
45043;SDS011;30784;48.490;9.688;2023-06-10T05:04:38;9.15;;;4.60;;
45043;SDS011;30784;48.490;9.688;2023-06-10T05:07:04;8.02;;;4.45;;
45043;SDS011;30784;48.490;9.688;2023-06-10T05:09:30;8.23;;;4.85;;
45043;SDS011;30784;48.490;9.688;2023-06-10T05:11:55;8.40;;;4.88;;
45043;SDS011;30784;48.490;9.688;2023-06-10T05:14:21;8.65;;;4.75;;
45043;SDS011;30784;48.490;9.688;2023-06-10T05:16:47;9.13;;;5.40;;
45043;SDS011;30784;48.490;9.688;2023-06-10T05:19:13;9.32;;;5.18;;
45043;SDS011;30784;48.490;9.688;2023-06-10T05:21:39;8.45;;;4.80;;
45043;SDS011;30784;48.490;9.688;2023-06-10T05:24:04;9.48;;;5.13;;
45043;SDS011;30784;48.490;9.688;2023-06-10T05:26:31;8.98;;;4.78;;
45043;SDS011;30784;48.490;9.688;2023-06-10T05:28:58;8.77;;;5.03;;
45043;SDS011;30784;48.490;9.688;2023-06-10T05:31:23;8.77;;;4.95;;
45043;SDS011;30784;48.490;9.688;2023-06-10T05:33:49;8.70;;;5.00;;
45043;SDS011;30784;48.490;9.688;2023-06-10T05:36:14;9.05;;;5.13;;
45043;SDS011;30784;48.490;9.688;2023-06-10T05:38:40;8.98;;;4.93;;
45043;SDS011;30784;48.490;9.688;2023-06-10T05:41:06;8.93;;;4.90;;
45043;SDS011;30784;48.490;9.688;2023-06-10T05:43:31;8.52;;;5.03;;
45043;SDS011;30784;48.490;9.688;2023-06-10T05:45:57;9.18;;;4.97;;
45043;SDS011;30784;48.490;9.688;2023-06-10T05:48:22;8.27;;;4.60;;
45043;SDS011;30784;48.490;9.688;2023-06-10T05:50:48;7.85;;;4.55;;
45043;SDS011;30784;48.490;9.688;2023-06-10T05:53:16;8.70;;;4.82;;
45043;SDS011;30784;48.490;9.688;2023-06-10T05:55:42;7.95;;;4.40;;
45043;SDS011;30784;48.490;9.688;2023-06-10T05:58:09;8.68;;;4.63;;
45043;SDS011;30784;48.490;9.688;2023-06-10T06:00:35;8.93;;;4.72;;
45043;SDS011;30784;48.490;9.688;2023-06-10T06:03:00;8.98;;;5.03;;
45043;SDS011;30784;48.490;9.688;2023-06-10T06:05:26;9.00;;;4.78;;
45043;SDS011;30784;48.490;9.688;2023-06-10T06:07:52;7.95;;;4.03;;
45043;SDS011;30784;48.490;9.688;2023-06-10T06:10:17;8.35;;;4.75;;
45043;SDS011;30784;48.490;9.688;2023-06-10T06:12:43;8.38;;;4.80;;
45043;SDS011;30784;48.490;9.688;2023-06-10T06:15:10;7.82;;;4.28;;
45043;SDS011;30784;48.490;9.688;2023-06-10T06:17:36;8.02;;;4.57;;
45043;SDS011;30784;48.490;9.688;2023-06-10T06:20:02;8.27;;;4.68;;
45043;SDS011;30784;48.490;9.688;2023-06-10T06:22:28;8.48;;;4.70;;
45043;SDS011;30784;48.490;9.688;2023-06-10T06:24:54;8.40;;;4.80;;
45043;SDS011;30784;48.490;9.688;2023-06-10T06:27:19;8.13;;;4.50;;
45043;SDS011;30784;48.490;9.688;2023-06-10T06:29:46;8.18;;;4.68;;
45043;SDS011;30784;48.490;9.688;2023-06-10T06:32:11;9.05;;;4.72;;
45043;SDS011;30784;48.490;9.688;2023-06-10T06:34:37;8.40;;;4.60;;
45043;SDS011;30784;48.490;9.688;2023-06-10T06:37:03;8.55;;;4.97;;
45043;SDS011;30784;48.490;9.688;2023-06-10T06:39:28;7.78;;;4.72;;
45043;SDS011;30784;48.490;9.688;2023-06-10T06:41:54;8.63;;;5.25;;
45043;SDS011;30784;48.490;9.688;2023-06-10T06:44:19;9.25;;;4.80;;
45043;SDS011;30784;48.490;9.688;2023-06-10T06:46:45;9.52;;;5.28;;
45043;SDS011;30784;48.490;9.688;2023-06-10T06:49:10;10.30;;;5.68;;
45043;SDS011;30784;48.490;9.688;2023-06-10T06:51:36;8.07;;;4.68;;
45043;SDS011;30784;48.490;9.688;2023-06-10T06:54:02;9.27;;;5.28;;
45043;SDS011;30784;48.490;9.688;2023-06-10T06:56:27;9.18;;;5.40;;
45043;SDS011;30784;48.490;9.688;2023-06-10T06:58:53;9.88;;;5.13;;
45043;SDS011;30784;48.490;9.688;2023-06-10T07:01:19;8.63;;;5.10;;
45043;SDS011;30784;48.490;9.688;2023-06-10T07:03:45;8.65;;;4.97;;
45043;SDS011;30784;48.490;9.688;2023-06-10T07:06:12;8.50;;;5.03;;
45043;SDS011;30784;48.490;9.688;2023-06-10T07:08:37;8.68;;;4.47;;
45043;SDS011;30784;48.490;9.688;2023-06-10T07:11:03;8.00;;;4.65;;
45043;SDS011;30784;48.490;9.688;2023-06-10T07:13:28;8.85;;;5.43;;
45043;SDS011;30784;48.490;9.688;2023-06-10T07:15:54;7.95;;;4.32;;
45043;SDS011;30784;48.490;9.688;2023-06-10T07:18:19;8.00;;;4.72;;
45043;SDS011;30784;48.490;9.688;2023-06-10T07:20:45;7.20;;;4.10;;
45043;SDS011;30784;48.490;9.688;2023-06-10T07:23:11;7.25;;;4.13;;
45043;SDS011;30784;48.490;9.688;2023-06-10T07:25:36;8.05;;;4.47;;
45043;SDS011;30784;48.490;9.688;2023-06-10T07:28:02;8.25;;;4.78;;
45043;SDS011;30784;48.490;9.688;2023-06-10T07:30:28;8.05;;;4.57;;
45043;SDS011;30784;48.490;9.688;2023-06-10T07:32:53;8.77;;;4.63;;
45043;SDS011;30784;48.490;9.688;2023-06-10T07:35:19;8.52;;;4.47;;
45043;SDS011;30784;48.490;9.688;2023-06-10T07:37:45;7.30;;;4.07;;
45043;SDS011;30784;48.490;9.688;2023-06-10T07:40:11;7.53;;;4.00;;
45043;SDS011;30784;48.490;9.688;2023-06-10T07:42:36;7.20;;;3.95;;
45043;SDS011;30784;48.490;9.688;2023-06-10T07:45:02;7.10;;;3.75;;
45043;SDS011;30784;48.490;9.688;2023-06-10T07:47:29;7.28;;;4.03;;
45043;SDS011;30784;48.490;9.688;2023-06-10T07:49:55;7.25;;;3.80;;
45043;SDS011;30784;48.490;9.688;2023-06-10T07:52:21;7.57;;;4.25;;
45043;SDS011;30784;48.490;9.688;2023-06-10T07:54:46;7.82;;;4.13;;
45043;SDS011;30784;48.490;9.688;2023-06-10T07:57:12;7.80;;;3.70;;
45043;SDS011;30784;48.490;9.688;2023-06-10T07:59:38;7.47;;;3.80;;
45043;SDS011;30784;48.490;9.688;2023-06-10T08:02:04;7.82;;;4.13;;
45043;SDS011;30784;48.490;9.688;2023-06-10T08:04:30;7.75;;;3.97;;
45043;SDS011;30784;48.490;9.688;2023-06-10T08:06:56;6.97;;;3.95;;
45043;SDS011;30784;48.490;9.688;2023-06-10T08:09:21;7.57;;;4.10;;
45043;SDS011;30784;48.490;9.688;2023-06-10T08:11:48;6.90;;;3.70;;
45043;SDS011;30784;48.490;9.688;2023-06-10T08:14:14;7.60;;;3.50;;
45043;SDS011;30784;48.490;9.688;2023-06-10T08:16:41;7.15;;;3.58;;
45043;SDS011;30784;48.490;9.688;2023-06-10T08:19:08;9.02;;;3.75;;
45043;SDS011;30784;48.490;9.688;2023-06-10T08:21:34;8.23;;;4.00;;
45043;SDS011;30784;48.490;9.688;2023-06-10T08:24:02;7.28;;;3.60;;
45043;SDS011;30784;48.490;9.688;2023-06-10T08:26:28;6.70;;;3.47;;
45043;SDS011;30784;48.490;9.688;2023-06-10T08:28:53;6.55;;;3.38;;
45043;SDS011;30784;48.490;9.688;2023-06-10T08:31:20;7.97;;;3.30;;
45043;SDS011;30784;48.490;9.688;2023-06-10T08:33:46;7.15;;;3.45;;
45043;SDS011;30784;48.490;9.688;2023-06-10T08:36:11;7.40;;;3.42;;
45043;SDS011;30784;48.490;9.688;2023-06-10T08:38:37;6.72;;;3.38;;
45043;SDS011;30784;48.490;9.688;2023-06-10T08:41:03;6.88;;;3.50;;
45043;SDS011;30784;48.490;9.688;2023-06-10T08:43:32;8.20;;;4.00;;
45043;SDS011;30784;48.490;9.688;2023-06-10T08:46:02;6.90;;;3.33;;
45043;SDS011;30784;48.490;9.688;2023-06-10T08:48:31;7.03;;;3.30;;
45043;SDS011;30784;48.490;9.688;2023-06-10T08:51:01;6.93;;;3.25;;
45043;SDS011;30784;48.490;9.688;2023-06-10T08:53:29;6.22;;;2.90;;
45043;SDS011;30784;48.490;9.688;2023-06-10T08:55:58;6.50;;;3.47;;
45043;SDS011;30784;48.490;9.688;2023-06-10T08:58:27;6.75;;;3.25;;
45043;SDS011;30784;48.490;9.688;2023-06-10T09:00:53;6.80;;;3.22;;
45043;SDS011;30784;48.490;9.688;2023-06-10T09:03:19;6.78;;;3.20;;
45043;SDS011;30784;48.490;9.688;2023-06-10T09:05:46;6.78;;;3.30;;
45043;SDS011;30784;48.490;9.688;2023-06-10T09:08:13;7.50;;;3.33;;
45043;SDS011;30784;48.490;9.688;2023-06-10T09:10:40;6.93;;;3.13;;
45043;SDS011;30784;48.490;9.688;2023-06-10T09:13:06;6.68;;;3.00;;
45043;SDS011;30784;48.490;9.688;2023-06-10T09:15:31;6.47;;;3.20;;
45043;SDS011;30784;48.490;9.688;2023-06-10T09:17:57;6.28;;;3.05;;
45043;SDS011;30784;48.490;9.688;2023-06-10T09:20:24;7.40;;;3.67;;
45043;SDS011;30784;48.490;9.688;2023-06-10T09:22:50;6.25;;;3.20;;
45043;SDS011;30784;48.490;9.688;2023-06-10T09:25:16;6.80;;;3.40;;
45043;SDS011;30784;48.490;9.688;2023-06-10T09:27:45;6.38;;;3.13;;
45043;SDS011;30784;48.490;9.688;2023-06-10T09:30:31;7.53;;;3.22;;
45043;SDS011;30784;48.490;9.688;2023-06-10T09:32:58;7.32;;;3.40;;
45043;SDS011;30784;48.490;9.688;2023-06-10T09:35:26;6.72;;;3.15;;
45043;SDS011;30784;48.490;9.688;2023-06-10T09:37:53;7.05;;;3.50;;
45043;SDS011;30784;48.490;9.688;2023-06-10T09:40:19;6.32;;;2.92;;
45043;SDS011;30784;48.490;9.688;2023-06-10T09:42:45;6.25;;;3.10;;
45043;SDS011;30784;48.490;9.688;2023-06-10T09:45:14;6.45;;;3.15;;
45043;SDS011;30784;48.490;9.688;2023-06-10T09:47:39;6.40;;;3.20;;
45043;SDS011;30784;48.490;9.688;2023-06-10T09:50:05;7.07;;;3.53;;
45043;SDS011;30784;48.490;9.688;2023-06-10T09:52:31;7.22;;;3.55;;
45043;SDS011;30784;48.490;9.688;2023-06-10T09:55:02;6.40;;;3.40;;
45043;SDS011;30784;48.490;9.688;2023-06-10T09:57:32;6.65;;;3.40;;
45043;SDS011;30784;48.490;9.688;2023-06-10T10:00:04;6.00;;;2.97;;
45043;SDS011;30784;48.490;9.688;2023-06-10T10:02:43;6.40;;;3.20;;
45043;SDS011;30784;48.490;9.688;2023-06-10T10:05:16;6.97;;;3.33;;
45043;SDS011;30784;48.490;9.688;2023-06-10T10:07:44;6.18;;;3.40;;
45043;SDS011;30784;48.490;9.688;2023-06-10T10:10:10;6.63;;;3.50;;
45043;SDS011;30784;48.490;9.688;2023-06-10T10:12:40;7.03;;;3.50;;
45043;SDS011;30784;48.490;9.688;2023-06-10T10:15:10;6.05;;;2.97;;
45043;SDS011;30784;48.490;9.688;2023-06-10T10:17:38;7.28;;;3.45;;
45043;SDS011;30784;48.490;9.688;2023-06-10T10:20:29;6.03;;;2.83;;
45043;SDS011;30784;48.490;9.688;2023-06-10T10:22:58;7.95;;;4.03;;
45043;SDS011;30784;48.490;9.688;2023-06-10T10:26:02;6.20;;;3.20;;
45043;SDS011;30784;48.490;9.688;2023-06-10T10:28:20;7.13;;;3.00;;
45043;SDS011;30784;48.490;9.688;2023-06-10T10:30:49;6.30;;;3.03;;
45043;SDS011;30784;48.490;9.688;2023-06-10T10:33:22;7.22;;;3.25;;
45043;SDS011;30784;48.490;9.688;2023-06-10T10:35:52;6.70;;;3.10;;
45043;SDS011;30784;48.490;9.688;2023-06-10T10:38:18;6.25;;;3.17;;
45043;SDS011;30784;48.490;9.688;2023-06-10T10:40:45;6.75;;;3.15;;
45043;SDS011;30784;48.490;9.688;2023-06-10T10:43:11;5.63;;;2.70;;
45043;SDS011;30784;48.490;9.688;2023-06-10T10:45:38;6.80;;;3.30;;
45043;SDS011;30784;48.490;9.688;2023-06-10T10:48:10;6.90;;;3.70;;
45043;SDS011;30784;48.490;9.688;2023-06-10T10:50:38;6.57;;;3.20;;
45043;SDS011;30784;48.490;9.688;2023-06-10T10:53:05;6.63;;;2.85;;
45043;SDS011;30784;48.490;9.688;2023-06-10T10:55:32;6.68;;;3.03;;
45043;SDS011;30784;48.490;9.688;2023-06-10T10:57:58;6.63;;;3.20;;
45043;SDS011;30784;48.490;9.688;2023-06-10T11:00:29;6.18;;;2.88;;
45043;SDS011;30784;48.490;9.688;2023-06-10T11:02:57;6.68;;;3.03;;
45043;SDS011;30784;48.490;9.688;2023-06-10T11:05:43;6.05;;;2.90;;
45043;SDS011;30784;48.490;9.688;2023-06-10T11:08:12;8.85;;;3.33;;
45043;SDS011;30784;48.490;9.688;2023-06-10T11:10:50;6.50;;;2.97;;
45043;SDS011;30784;48.490;9.688;2023-06-10T11:13:19;5.95;;;2.65;;
45043;SDS011;30784;48.490;9.688;2023-06-10T11:15:46;6.45;;;3.08;;
45043;SDS011;30784;48.490;9.688;2023-06-10T11:18:13;6.15;;;2.85;;
45043;SDS011;30784;48.490;9.688;2023-06-10T11:28:39;5.93;;;2.67;;
45043;SDS011;30784;48.490;9.688;2023-06-10T11:33:53;5.72;;;2.40;;
45043;SDS011;30784;48.490;9.688;2023-06-10T11:36:21;5.70;;;2.83;;
45043;SDS011;30784;48.490;9.688;2023-06-10T11:38:47;5.68;;;2.65;;
45043;SDS011;30784;48.490;9.688;2023-06-10T11:41:17;6.10;;;2.88;;
45043;SDS011;30784;48.490;9.688;2023-06-10T11:43:43;5.65;;;2.70;;
45043;SDS011;30784;48.490;9.688;2023-06-10T11:46:12;5.63;;;2.60;;
45043;SDS011;30784;48.490;9.688;2023-06-10T11:48:39;6.30;;;2.78;;
45043;SDS011;30784;48.490;9.688;2023-06-10T11:51:07;5.90;;;2.80;;
45043;SDS011;30784;48.490;9.688;2023-06-10T11:53:34;5.33;;;2.67;;
45043;SDS011;30784;48.490;9.688;2023-06-10T11:56:00;4.97;;;2.50;;
45043;SDS011;30784;48.490;9.688;2023-06-10T11:58:25;5.90;;;2.80;;
45043;SDS011;30784;48.490;9.688;2023-06-10T12:00:52;5.93;;;2.67;;
45043;SDS011;30784;48.490;9.688;2023-06-10T12:03:21;6.00;;;2.60;;
45043;SDS011;30784;48.490;9.688;2023-06-10T12:06:00;6.57;;;2.75;;
45043;SDS011;30784;48.490;9.688;2023-06-10T12:08:28;5.68;;;2.75;;
45043;SDS011;30784;48.490;9.688;2023-06-10T12:10:54;6.82;;;2.92;;
45043;SDS011;30784;48.490;9.688;2023-06-10T12:13:20;6.20;;;2.80;;
45043;SDS011;30784;48.490;9.688;2023-06-10T12:15:46;7.25;;;2.67;;
45043;SDS011;30784;48.490;9.688;2023-06-10T12:18:19;6.70;;;3.15;;
45043;SDS011;30784;48.490;9.688;2023-06-10T12:20:46;5.88;;;2.70;;
45043;SDS011;30784;48.490;9.688;2023-06-10T12:23:13;5.25;;;2.45;;
45043;SDS011;30784;48.490;9.688;2023-06-10T12:25:39;5.68;;;2.53;;
45043;SDS011;30784;48.490;9.688;2023-06-10T12:28:21;5.97;;;3.00;;
45043;SDS011;30784;48.490;9.688;2023-06-10T12:30:48;5.65;;;2.63;;
45043;SDS011;30784;48.490;9.688;2023-06-10T12:33:20;5.78;;;2.55;;
45043;SDS011;30784;48.490;9.688;2023-06-10T12:35:50;5.15;;;2.55;;
45043;SDS011;30784;48.490;9.688;2023-06-10T12:38:25;6.75;;;2.67;;
45043;SDS011;30784;48.490;9.688;2023-06-10T12:40:57;5.75;;;2.85;;
45043;SDS011;30784;48.490;9.688;2023-06-10T12:43:27;6.28;;;2.70;;
45043;SDS011;30784;48.490;9.688;2023-06-10T12:45:53;6.07;;;2.70;;
45043;SDS011;30784;48.490;9.688;2023-06-10T12:48:20;5.85;;;2.70;;
45043;SDS011;30784;48.490;9.688;2023-06-10T12:50:50;5.47;;;2.42;;
45043;SDS011;30784;48.490;9.688;2023-06-10T12:53:20;5.78;;;2.58;;
45043;SDS011;30784;48.490;9.688;2023-06-10T12:55:47;6.72;;;2.80;;
45043;SDS011;30784;48.490;9.688;2023-06-10T12:58:13;5.88;;;2.88;;
45043;SDS011;30784;48.490;9.688;2023-06-10T13:00:39;6.18;;;2.88;;
45043;SDS011;30784;48.490;9.688;2023-06-10T13:03:07;6.00;;;3.00;;
45043;SDS011;30784;48.490;9.688;2023-06-10T13:05:34;6.65;;;3.10;;
45043;SDS011;30784;48.490;9.688;2023-06-10T13:08:02;5.72;;;2.72;;
45043;SDS011;30784;48.490;9.688;2023-06-10T13:10:28;6.15;;;2.97;;
45043;SDS011;30784;48.490;9.688;2023-06-10T13:12:53;6.72;;;3.30;;
45043;SDS011;30784;48.490;9.688;2023-06-10T13:15:19;6.68;;;3.05;;
45043;SDS011;30784;48.490;9.688;2023-06-10T13:17:45;6.45;;;2.70;;
45043;SDS011;30784;48.490;9.688;2023-06-10T13:20:14;6.00;;;2.80;;
45043;SDS011;30784;48.490;9.688;2023-06-10T13:22:41;5.82;;;2.53;;
45043;SDS011;30784;48.490;9.688;2023-06-10T13:25:07;5.60;;;2.50;;
45043;SDS011;30784;48.490;9.688;2023-06-10T13:27:33;6.30;;;2.65;;
45043;SDS011;30784;48.490;9.688;2023-06-10T13:29:59;5.95;;;2.70;;
45043;SDS011;30784;48.490;9.688;2023-06-10T13:32:25;6.32;;;2.55;;
45043;SDS011;30784;48.490;9.688;2023-06-10T13:34:50;6.60;;;2.70;;
45043;SDS011;30784;48.490;9.688;2023-06-10T13:37:16;7.07;;;2.90;;
45043;SDS011;30784;48.490;9.688;2023-06-10T13:39:43;5.07;;;2.33;;
45043;SDS011;30784;48.490;9.688;2023-06-10T13:42:08;5.82;;;2.75;;
45043;SDS011;30784;48.490;9.688;2023-06-10T13:44:34;6.40;;;3.00;;
45043;SDS011;30784;48.490;9.688;2023-06-10T13:47:01;6.78;;;3.28;;
45043;SDS011;30784;48.490;9.688;2023-06-10T13:49:27;6.72;;;3.30;;
45043;SDS011;30784;48.490;9.688;2023-06-10T13:51:53;6.30;;;2.95;;
45043;SDS011;30784;48.490;9.688;2023-06-10T13:54:18;6.40;;;2.95;;
45043;SDS011;30784;48.490;9.688;2023-06-10T13:56:44;5.72;;;2.80;;
45043;SDS011;30784;48.490;9.688;2023-06-10T13:59:10;6.13;;;2.92;;
45043;SDS011;30784;48.490;9.688;2023-06-10T14:01:35;5.80;;;2.80;;
45043;SDS011;30784;48.490;9.688;2023-06-10T14:04:01;5.55;;;2.90;;
45043;SDS011;30784;48.490;9.688;2023-06-10T14:06:27;6.50;;;3.40;;
45043;SDS011;30784;48.490;9.688;2023-06-10T14:08:53;7.75;;;3.50;;
45043;SDS011;30784;48.490;9.688;2023-06-10T14:11:19;7.18;;;3.83;;
45043;SDS011;30784;48.490;9.688;2023-06-10T14:13:46;8.50;;;3.40;;
45043;SDS011;30784;48.490;9.688;2023-06-10T14:16:11;6.55;;;3.33;;
45043;SDS011;30784;48.490;9.688;2023-06-10T14:18:37;6.65;;;3.50;;
45043;SDS011;30784;48.490;9.688;2023-06-10T14:21:03;6.00;;;3.30;;
45043;SDS011;30784;48.490;9.688;2023-06-10T14:23:28;7.03;;;3.25;;
45043;SDS011;30784;48.490;9.688;2023-06-10T14:25:54;8.45;;;3.20;;
45043;SDS011;30784;48.490;9.688;2023-06-10T14:28:19;6.68;;;3.25;;
45043;SDS011;30784;48.490;9.688;2023-06-10T14:30:45;5.82;;;3.00;;
45043;SDS011;30784;48.490;9.688;2023-06-10T14:33:11;6.15;;;3.15;;
45043;SDS011;30784;48.490;9.688;2023-06-10T14:35:36;6.20;;;3.10;;
45043;SDS011;30784;48.490;9.688;2023-06-10T14:38:02;9.43;;;3.40;;
45043;SDS011;30784;48.490;9.688;2023-06-10T14:40:27;6.80;;;3.45;;
45043;SDS011;30784;48.490;9.688;2023-06-10T14:42:56;6.22;;;3.17;;
45043;SDS011;30784;48.490;9.688;2023-06-10T14:45:22;6.55;;;3.25;;
45043;SDS011;30784;48.490;9.688;2023-06-10T14:47:49;6.75;;;3.28;;
45043;SDS011;30784;48.490;9.688;2023-06-10T14:50:15;6.30;;;3.10;;
45043;SDS011;30784;48.490;9.688;2023-06-10T14:52:40;5.55;;;2.88;;
45043;SDS011;30784;48.490;9.688;2023-06-10T14:55:06;5.78;;;3.10;;
45043;SDS011;30784;48.490;9.688;2023-06-10T14:57:32;6.60;;;3.42;;